Aircraft
UPR1005 PR-QAA Citation
RODN
Kadena Air Base
RJSK
Akita Airport
Pilot:: Eber
Aircraft:: Cessna Citation CJ4
Alternate: RJSS
Network: ivao
FLIGHT DETAILS
Distance: 1012nm Duration 02h 35m
Cruise Speed: Flight Level: 41000
Validation: Validated Type Charter
Flight Fuel
ZFW: 4885
Block Fuel/Initial FOB: 2663
Flight Fuel: 1372
Cargo
Passengers: 7
Cargo: 0
ROUTE
ROUTE: OKUMA A582 ONC B597 RURIK Y53 MADOG B597 SUC V53 KTE V38 KMC Y381 GOLDO Y347 GTC Y312 KENSI V31 YAYOI YAYOIW
REMARKS:
DATE
Date: 26-05-07
Departure Time: 1926
Cargo: 0
FLIGHT DETAILS
Crashed: No
Validator Comments: Validado por Rafael
Flight Rating: 100
LANDING ANALYSIS
Landing wind: 98º/2 kt
Landing heading: 280º
Landing VS:: -73 ft/min
Landing IAS:: 108 kt
Landing Force G: 1 G
Landing Bank: 1
Landing Pitch: -1
Landing Flaps: 100
Navigation Lights: ON
Landing Lights: ON
Beacon Lights: ON
Strobe Lights: ON
viserfly

ALTITUDE CHART

viserfly

MAIN EVENTS

DATE EVENT IAS ALTITUDE
2026-05-07 19:17:34 FLYacars version 1.3.5 0 137
2026-05-07 19:17:35 Beacon Lights ON 0 137
2026-05-07 19:18:15 Taxi Lights ON 0 137
2026-05-07 19:18:18 Starting Engine 2 0 137
2026-05-07 19:19:07 Starting Engine 1 0 135
2026-05-07 19:20:09 Aircraft taxiing to runway 5 135
2026-05-07 19:25:17 Aircraft boarding in progress 1 96
2026-05-07 19:25:17 Navigation Lights ON 1 96
2026-05-07 19:25:18 Strobe Lights ON 1 96
2026-05-07 19:25:50 Landing Lights ON 0 96
2026-05-07 19:25:50 Taxi Lights OFF 0 96
2026-05-07 19:25:51 Taxi Lights ON 0 96
2026-05-07 19:26:13 FLAPS 50% 55 99
2026-05-07 19:26:33 Detected Take-off roll, HDG 49, IAS 164kt, GS 167kt, G-force 1.1g, Pitch -2.8deg, Bank -0.3deg, Wind 064/00kt, Temp 20°C 164 118
2026-05-07 19:26:33 Airborne 164 118
2026-05-07 19:26:35 Gear UP, IAS 171kt, GS 173kt, ALT 51ft AGL 171 169
2026-05-07 19:27:15 FLAPS 0% 211kt, ALT 1993ft 211 1993
2026-05-07 19:29:26 Landing Lights OFF 210 10414
2026-05-07 19:29:26 Taxi Lights OFF 210 10414
2026-05-07 19:46:04 Aircraft on Top Of Climb at 42101ft, IAS 179kt, GS 378kt, HDG 41deg, TAT -56deg, WIND 283/52kt 179 42101
2026-05-07 21:39:18 Aircraft on Top Of Descent at 40494ft, IAS 214kt, GS 473kt, HDG 95deg, TAT -59deg, WIND 240/71kt 214 40494
2026-05-07 21:53:30 Landing Lights ON 232 9876
2026-05-07 21:53:31 Taxi Lights ON 232 9847
2026-05-07 21:58:46 Gear DOWN, IAS 225kt, GS 228kt, ALT 1204ft AGL 225 2208
2026-05-07 21:59:18 FLAPS 50% 187kt, ALT 1784ft 187 1784
2026-05-07 21:59:18 FLAPS 100% 187kt, ALT 1781ft 187 1781
2026-05-07 22:01:45 Landed at destination with a landing rate of -73fpm, G-force 1.0g, Pitch -1.1deg, Bank 1.2deg, HDG 280deg, IAS 108kt, GS 110kt, Wind 098/02kt, Temp 14°C 108 301
2026-05-07 22:02:07 Aircraft taxiing to apron 23 293
2026-05-07 22:03:22 FLAPS 50% 20 294
2026-05-07 22:06:47 Aircraft at gate/stand, ground services are moving into position, disembarkation has begun. Remaining FOB 1291kg FLYacars v1.3.5 0 304
viserfly

ACARS DATA

DATE IAS GS ALTITUDE FUEL CONSUMED OAT FLIGHT STATUS
2026-05-07 19:18:04 0 0 137 0 21 BOARDING
2026-05-07 19:18:34 0 2 136 1 19 PUSHBACK
2026-05-07 19:19:04 0 2 135 1 20 PUSHBACK
2026-05-07 19:19:34 0 1 135 2 20 PUSHBACK
2026-05-07 19:20:04 2 3 135 3 20 PUSHBACK
2026-05-07 19:20:34 17 17 133 5 19 TAXI TO RUNWAY
2026-05-07 19:21:04 19 20 130 6 19 TAXI TO RUNWAY
2026-05-07 19:21:34 20 21 126 7 20 TAXI TO RUNWAY
2026-05-07 19:22:04 21 22 122 7 20 TAXI TO RUNWAY
2026-05-07 19:22:34 21 21 118 8 20 TAXI TO RUNWAY
2026-05-07 19:23:04 20 21 114 9 19 TAXI TO RUNWAY
2026-05-07 19:23:34 20 21 110 10 19 TAXI TO RUNWAY
2026-05-07 19:24:04 20 20 107 11 19 TAXI TO RUNWAY
2026-05-07 19:24:34 20 21 102 12 19 TAXI TO RUNWAY
2026-05-07 19:25:04 0 0 96 13 19 TAXI TO RUNWAY
2026-05-07 19:25:34 13 13 95 15 19 TAXI TO RUNWAY
2026-05-07 19:26:04 0 1 96 16 19 TAXI TO RUNWAY
2026-05-07 19:26:34 170 172 152 29 19 TAKEOFF
2026-05-07 19:27:04 204 214 1562 41 20 INITIAL CLIMB
2026-05-07 19:27:34 209 226 3332 51 19 CLIMB
2026-05-07 19:28:04 209 234 5444 62 15 CLIMB
2026-05-07 19:28:34 209 245 7327 73 11 CLIMB
2026-05-07 19:29:04 209 254 9147 83 8 CLIMB
2026-05-07 19:29:34 209 263 10916 94 5 CLIMB
2026-05-07 19:30:04 238 303 11860 105 4 CLIMB
2026-05-07 19:30:34 238 310 13388 115 2 CLIMB
2026-05-07 19:31:04 238 318 14817 125 0 CLIMB
2026-05-07 19:31:34 238 327 16178 135 -1 CLIMB
2026-05-07 19:32:04 238 335 17445 145 -3 CLIMB
2026-05-07 19:32:34 238 343 18625 155 -5 CLIMB
2026-05-07 19:33:04 239 350 19753 165 -7 CLIMB
2026-05-07 19:33:34 239 355 20932 174 -10 CLIMB
2026-05-07 19:34:04 239 360 22047 184 -12 CLIMB
2026-05-07 19:34:34 238 364 23116 193 -14 CLIMB
2026-05-07 19:35:04 239 370 24111 202 -16 CLIMB
2026-05-07 19:35:34 239 376 25061 212 -19 CLIMB
2026-05-07 19:36:04 239 381 26012 221 -21 CLIMB
2026-05-07 19:36:34 239 387 26931 230 -23 CLIMB
2026-05-07 19:37:04 239 392 27807 239 -25 CLIMB
2026-05-07 19:37:34 238 399 28615 248 -27 CLIMB
2026-05-07 19:38:04 239 405 29388 257 -29 CLIMB
2026-05-07 19:38:34 234 404 30357 265 -31 CLIMB
2026-05-07 19:39:04 229 403 31305 274 -33 CLIMB
2026-05-07 19:39:34 225 400 32287 282 -36 CLIMB
2026-05-07 19:40:04 220 398 33247 290 -39 CLIMB
2026-05-07 19:40:34 215 395 34143 298 -41 CLIMB
2026-05-07 19:41:04 211 393 35030 305 -43 CLIMB
2026-05-07 19:41:34 207 392 35942 313 -45 CLIMB
2026-05-07 19:42:04 203 388 36867 320 -47 CLIMB
2026-05-07 19:42:34 199 385 37680 327 -49 CLIMB
2026-05-07 19:43:04 195 382 38441 333 -50 CLIMB
2026-05-07 19:43:34 192 379 39156 340 -52 CLIMB
2026-05-07 19:44:04 188 375 39874 346 -53 CLIMB
2026-05-07 19:44:34 186 376 40470 352 -54 CLIMB
2026-05-07 19:45:04 183 376 41048 358 -55 CLIMB
2026-05-07 19:45:34 181 376 41615 363 -56 CLIMB
2026-05-07 19:46:04 178 378 42103 369 -56 ENROUTE
2026-05-07 19:46:34 186 393 42179 374 -57 ENROUTE
2026-05-07 19:47:04 188 396 42195 379 -57 ENROUTE
2026-05-07 19:47:34 189 398 42196 383 -57 ENROUTE
2026-05-07 19:48:04 190 399 42197 387 -57 ENROUTE
2026-05-07 19:48:34 190 402 42177 390 -56 ENROUTE
2026-05-07 19:49:04 191 403 42178 394 -56 ENROUTE
2026-05-07 19:49:34 192 404 42182 398 -57 ENROUTE
2026-05-07 19:50:04 192 405 42180 402 -57 ENROUTE
2026-05-07 19:50:34 192 406 42163 406 -56 ENROUTE
2026-05-07 19:51:04 193 407 42165 410 -56 ENROUTE
2026-05-07 19:51:34 193 408 42165 414 -56 ENROUTE
2026-05-07 19:52:04 194 408 42166 418 -56 ENROUTE
2026-05-07 19:52:34 194 409 42151 422 -56 ENROUTE
2026-05-07 19:53:04 194 409 42153 426 -56 ENROUTE
2026-05-07 19:53:34 194 399 42155 430 -56 ENROUTE
2026-05-07 19:54:04 194 397 42156 434 -56 ENROUTE
2026-05-07 19:54:34 194 398 42132 438 -56 ENROUTE
2026-05-07 19:55:04 195 398 42134 442 -56 ENROUTE
2026-05-07 19:55:34 195 398 42137 446 -56 ENROUTE
2026-05-07 19:56:04 195 398 42139 449 -56 ENROUTE
2026-05-07 19:56:34 194 399 42119 453 -56 ENROUTE
2026-05-07 19:57:04 194 399 42119 457 -56 ENROUTE
2026-05-07 19:57:34 195 399 42120 461 -56 ENROUTE
2026-05-07 19:58:04 194 400 42110 465 -56 ENROUTE
2026-05-07 19:58:34 195 400 42099 469 -56 ENROUTE
2026-05-07 19:59:04 195 400 42100 473 -56 ENROUTE
2026-05-07 19:59:34 195 400 42100 477 -56 ENROUTE
2026-05-07 20:00:04 194 401 42085 481 -56 ENROUTE
2026-05-07 20:00:34 195 401 42079 485 -56 ENROUTE
2026-05-07 20:01:04 195 401 42080 489 -56 ENROUTE
2026-05-07 20:01:34 195 401 42080 493 -56 ENROUTE
2026-05-07 20:02:04 194 403 42058 496 -56 ENROUTE
2026-05-07 20:02:34 194 408 42059 500 -56 ENROUTE
2026-05-07 20:03:04 195 408 42062 504 -56 ENROUTE
2026-05-07 20:03:34 195 408 42063 508 -56 ENROUTE
2026-05-07 20:04:04 195 408 42064 512 -56 ENROUTE
2026-05-07 20:04:34 195 408 42065 516 -56 ENROUTE
2026-05-07 20:05:04 195 408 42065 520 -56 ENROUTE
2026-05-07 20:05:34 194 409 42052 524 -56 ENROUTE
2026-05-07 20:06:04 195 409 42052 528 -56 ENROUTE
2026-05-07 20:06:34 195 409 42053 532 -56 ENROUTE
2026-05-07 20:07:04 195 409 42054 536 -56 ENROUTE
2026-05-07 20:07:34 194 410 42030 540 -56 ENROUTE
2026-05-07 20:08:04 194 411 42030 543 -56 ENROUTE
2026-05-07 20:08:34 195 411 42030 547 -56 ENROUTE
2026-05-07 20:09:04 194 411 42015 551 -56 ENROUTE
2026-05-07 20:09:34 195 412 42011 555 -56 ENROUTE
2026-05-07 20:10:04 195 412 42011 559 -56 ENROUTE
2026-05-07 20:10:34 195 412 42012 563 -56 ENROUTE
2026-05-07 20:11:04 195 413 41978 567 -56 ENROUTE
2026-05-07 20:11:34 195 413 41979 571 -56 ENROUTE
2026-05-07 20:12:04 195 414 41980 575 -56 ENROUTE
2026-05-07 20:12:34 195 414 41977 579 -56 ENROUTE
2026-05-07 20:13:04 195 414 41971 583 -56 ENROUTE
2026-05-07 20:13:34 195 414 41971 587 -56 ENROUTE
2026-05-07 20:14:04 195 414 41972 591 -56 ENROUTE
2026-05-07 20:14:34 195 416 41938 594 -56 ENROUTE
2026-05-07 20:15:04 195 416 41939 598 -56 ENROUTE
2026-05-07 20:15:34 195 416 41940 602 -56 ENROUTE
2026-05-07 20:16:04 195 417 41923 606 -56 ENROUTE
2026-05-07 20:16:34 195 417 41925 610 -56 ENROUTE
2026-05-07 20:17:04 195 417 41925 614 -56 ENROUTE
2026-05-07 20:17:34 195 417 41925 618 -56 ENROUTE
2026-05-07 20:18:04 195 418 41898 622 -56 ENROUTE
2026-05-07 20:18:34 195 418 41899 626 -56 ENROUTE
2026-05-07 20:19:04 195 418 41900 630 -56 ENROUTE
2026-05-07 20:19:34 195 419 41884 634 -56 ENROUTE
2026-05-07 20:20:04 195 419 41883 638 -56 ENROUTE
2026-05-07 20:20:34 195 419 41883 641 -56 ENROUTE
2026-05-07 20:21:04 195 419 41894 645 -56 ENROUTE
2026-05-07 20:21:34 195 419 41895 649 -56 ENROUTE
2026-05-07 20:22:04 195 419 41896 653 -56 ENROUTE
2026-05-07 20:22:34 195 419 41896 657 -56 ENROUTE
2026-05-07 20:23:04 195 420 41869 661 -56 ENROUTE
2026-05-07 20:23:34 195 420 41869 665 -56 ENROUTE
2026-05-07 20:24:04 195 420 41871 669 -56 ENROUTE
2026-05-07 20:24:34 195 421 41854 673 -56 ENROUTE
2026-05-07 20:25:04 195 421 41854 677 -56 ENROUTE
2026-05-07 20:25:34 195 421 41854 681 -56 ENROUTE
2026-05-07 20:26:04 195 422 41834 685 -56 ENROUTE
2026-05-07 20:26:34 195 422 41835 688 -56 ENROUTE
2026-05-07 20:27:04 195 422 41836 692 -56 ENROUTE
2026-05-07 20:27:34 195 422 41825 696 -56 ENROUTE
2026-05-07 20:28:04 195 423 41810 700 -56 ENROUTE
2026-05-07 20:28:34 195 423 41810 704 -56 ENROUTE
2026-05-07 20:29:04 196 423 41814 708 -56 ENROUTE
2026-05-07 20:29:34 195 423 41808 712 -56 ENROUTE
2026-05-07 20:30:04 195 423 41808 716 -56 ENROUTE
2026-05-07 20:30:34 195 423 41809 720 -56 ENROUTE
2026-05-07 20:31:04 195 424 41784 724 -56 ENROUTE
2026-05-07 20:31:34 195 429 41784 728 -56 ENROUTE
2026-05-07 20:32:04 196 429 41787 732 -56 ENROUTE
2026-05-07 20:32:34 196 430 41771 735 -56 ENROUTE
2026-05-07 20:33:04 196 429 41772 739 -56 ENROUTE
2026-05-07 20:33:34 196 429 41773 743 -56 ENROUTE
2026-05-07 20:34:04 196 430 41748 747 -56 ENROUTE
2026-05-07 20:34:34 196 430 41749 751 -56 ENROUTE
2026-05-07 20:35:04 196 430 41750 755 -56 ENROUTE
2026-05-07 20:35:34 196 431 41729 759 -57 ENROUTE
2026-05-07 20:36:04 196 431 41729 763 -57 ENROUTE
2026-05-07 20:36:34 196 431 41729 767 -57 ENROUTE
2026-05-07 20:37:04 196 431 41729 771 -57 ENROUTE
2026-05-07 20:37:34 196 431 41729 775 -57 ENROUTE
2026-05-07 20:38:04 196 431 41730 779 -57 ENROUTE
2026-05-07 20:38:34 196 428 41710 782 -57 ENROUTE
2026-05-07 20:39:04 196 429 41709 786 -57 ENROUTE
2026-05-07 20:39:34 196 429 41709 790 -57 ENROUTE
2026-05-07 20:40:04 195 429 41690 794 -57 ENROUTE
2026-05-07 20:40:34 195 429 41689 798 -57 ENROUTE
2026-05-07 20:41:04 196 430 41690 802 -57 ENROUTE
2026-05-07 20:41:34 196 430 41676 806 -57 ENROUTE
2026-05-07 20:42:04 196 430 41676 810 -57 ENROUTE
2026-05-07 20:42:34 196 430 41676 814 -57 ENROUTE
2026-05-07 20:43:04 196 431 41653 818 -58 ENROUTE
2026-05-07 20:43:34 196 431 41662 822 -57 ENROUTE
2026-05-07 20:44:04 196 431 41663 826 -57 ENROUTE
2026-05-07 20:44:34 196 432 41640 830 -57 ENROUTE
2026-05-07 20:45:04 196 432 41639 833 -57 ENROUTE
2026-05-07 20:45:34 196 432 41639 837 -57 ENROUTE
2026-05-07 20:46:04 196 432 41628 841 -57 ENROUTE
2026-05-07 20:46:34 196 422 41629 845 -57 ENROUTE
2026-05-07 20:47:04 196 419 41632 849 -57 ENROUTE
2026-05-07 20:47:34 196 420 41616 853 -57 ENROUTE
2026-05-07 20:48:04 196 420 41615 857 -57 ENROUTE
2026-05-07 20:48:34 196 421 41609 861 -57 ENROUTE
2026-05-07 20:49:04 196 422 41578 865 -57 ENROUTE
2026-05-07 20:49:34 196 422 41589 869 -58 ENROUTE
2026-05-07 20:50:04 196 422 41588 873 -58 ENROUTE
2026-05-07 20:50:34 196 423 41579 877 -58 ENROUTE
2026-05-07 20:51:04 196 423 41580 881 -58 ENROUTE
2026-05-07 20:51:34 196 423 41578 884 -58 ENROUTE
2026-05-07 20:52:04 197 423 41578 888 -58 ENROUTE
2026-05-07 20:52:34 197 427 41578 892 -58 ENROUTE
2026-05-07 20:53:04 197 434 41560 896 -58 ENROUTE
2026-05-07 20:53:34 197 433 41562 900 -58 ENROUTE
2026-05-07 20:54:04 197 434 41563 904 -58 ENROUTE
2026-05-07 20:54:34 196 435 41537 908 -58 ENROUTE
2026-05-07 20:55:04 196 435 41537 912 -58 ENROUTE
2026-05-07 20:55:34 197 435 41540 916 -58 ENROUTE
2026-05-07 20:56:04 196 435 41539 920 -58 ENROUTE
2026-05-07 20:56:34 196 435 41538 924 -58 ENROUTE
2026-05-07 20:57:04 196 436 41510 928 -58 ENROUTE
2026-05-07 20:57:34 196 436 41510 932 -58 ENROUTE
2026-05-07 20:58:04 197 440 41516 936 -58 ENROUTE
2026-05-07 20:58:34 196 441 41500 939 -58 ENROUTE
2026-05-07 20:59:04 197 441 41501 943 -58 ENROUTE
2026-05-07 20:59:34 197 441 41503 947 -58 ENROUTE
2026-05-07 21:00:04 197 442 41495 951 -58 ENROUTE
2026-05-07 21:00:34 197 441 41502 955 -58 ENROUTE
2026-05-07 21:01:04 197 442 41477 959 -58 ENROUTE
2026-05-07 21:01:34 197 441 41475 963 -58 ENROUTE
2026-05-07 21:02:04 197 442 41461 967 -58 ENROUTE
2026-05-07 21:02:34 196 443 41450 971 -58 ENROUTE
2026-05-07 21:03:04 196 444 41443 975 -58 ENROUTE
2026-05-07 21:03:34 196 444 41449 979 -58 ENROUTE
2026-05-07 21:04:04 196 445 41448 983 -58 ENROUTE
2026-05-07 21:04:34 197 445 41451 987 -58 ENROUTE
2026-05-07 21:05:04 197 446 41448 991 -58 ENROUTE
2026-05-07 21:05:34 197 452 41443 995 -58 ENROUTE
2026-05-07 21:06:04 197 453 41447 999 -58 ENROUTE
2026-05-07 21:06:34 197 453 41438 1003 -58 ENROUTE
2026-05-07 21:07:04 197 453 41439 1006 -58 ENROUTE
2026-05-07 21:07:34 197 453 41430 1010 -58 ENROUTE
2026-05-07 21:08:04 197 453 41431 1014 -58 ENROUTE
2026-05-07 21:08:34 197 453 41431 1018 -58 ENROUTE
2026-05-07 21:09:04 197 453 41432 1022 -58 ENROUTE
2026-05-07 21:09:34 197 453 41433 1026 -58 ENROUTE
2026-05-07 21:10:04 197 453 41433 1030 -58 ENROUTE
2026-05-07 21:10:34 197 453 41433 1034 -58 ENROUTE
2026-05-07 21:11:04 197 452 41433 1038 -58 ENROUTE
2026-05-07 21:11:34 197 453 41425 1042 -59 ENROUTE
2026-05-07 21:12:04 197 453 41425 1046 -59 ENROUTE
2026-05-07 21:12:34 196 453 41410 1050 -58 DESCENT
2026-05-07 21:13:04 197 453 41401 1054 -59 ENROUTE
2026-05-07 21:13:34 197 453 41401 1058 -59 ENROUTE
2026-05-07 21:14:04 197 454 41402 1062 -59 ENROUTE
2026-05-07 21:14:34 197 454 41403 1065 -59 ENROUTE
2026-05-07 21:15:04 197 454 41403 1069 -59 ENROUTE
2026-05-07 21:15:34 197 454 41405 1073 -59 ENROUTE
2026-05-07 21:16:04 197 455 41402 1077 -59 ENROUTE
2026-05-07 21:16:34 197 452 41400 1081 -59 ENROUTE
2026-05-07 21:17:04 197 453 41399 1085 -59 ENROUTE
2026-05-07 21:17:34 197 453 41401 1089 -59 ENROUTE
2026-05-07 21:18:04 197 453 41384 1093 -59 ENROUTE
2026-05-07 21:18:34 197 453 41383 1097 -59 ENROUTE
2026-05-07 21:19:04 197 453 41383 1101 -59 ENROUTE
2026-05-07 21:19:34 197 454 41384 1105 -59 ENROUTE
2026-05-07 21:20:04 198 455 41383 1109 -59 ENROUTE
2026-05-07 21:20:34 198 455 41381 1113 -59 ENROUTE
2026-05-07 21:21:04 198 455 41372 1117 -59 ENROUTE
2026-05-07 21:21:34 198 456 41373 1121 -59 ENROUTE
2026-05-07 21:22:04 198 456 41371 1125 -59 ENROUTE
2026-05-07 21:22:34 198 456 41358 1129 -59 ENROUTE
2026-05-07 21:23:04 198 456 41358 1133 -59 ENROUTE
2026-05-07 21:23:34 198 456 41358 1136 -59 ENROUTE
2026-05-07 21:24:04 198 457 41350 1140 -59 ENROUTE
2026-05-07 21:24:34 198 457 41351 1144 -59 ENROUTE
2026-05-07 21:25:04 199 457 41345 1148 -59 ENROUTE
2026-05-07 21:25:34 199 457 41341 1152 -59 ENROUTE
2026-05-07 21:26:04 198 457 41342 1156 -59 ENROUTE
2026-05-07 21:26:34 199 457 41343 1160 -60 ENROUTE
2026-05-07 21:27:04 198 458 41319 1164 -59 ENROUTE
2026-05-07 21:27:34 198 458 41318 1168 -59 ENROUTE
2026-05-07 21:28:04 198 458 41318 1172 -60 ENROUTE
2026-05-07 21:28:34 198 458 41319 1176 -60 ENROUTE
2026-05-07 21:29:04 198 458 41319 1180 -60 ENROUTE
2026-05-07 21:29:34 198 458 41309 1184 -60 ENROUTE
2026-05-07 21:30:04 198 458 41309 1188 -60 ENROUTE
2026-05-07 21:30:34 198 458 41309 1192 -60 ENROUTE
2026-05-07 21:31:04 198 459 41300 1195 -60 ENROUTE
2026-05-07 21:31:34 198 459 41288 1199 -60 ENROUTE
2026-05-07 21:32:04 198 459 41288 1203 -60 ENROUTE
2026-05-07 21:32:34 198 459 41289 1207 -60 ENROUTE
2026-05-07 21:33:04 198 459 41289 1211 -60 ENROUTE
2026-05-07 21:33:34 198 460 41266 1215 -60 ENROUTE
2026-05-07 21:34:04 198 460 41266 1219 -60 ENROUTE
2026-05-07 21:34:34 198 463 41264 1223 -60 ENROUTE
2026-05-07 21:35:04 197 457 41257 1227 -60 ENROUTE
2026-05-07 21:35:34 197 443 41260 1231 -60 ENROUTE
2026-05-07 21:36:04 197 421 41260 1235 -60 ENROUTE
2026-05-07 21:36:34 197 418 41265 1239 -59 ENROUTE
2026-05-07 21:37:04 197 433 41269 1243 -59 ENROUTE
2026-05-07 21:37:34 197 444 41276 1247 -59 ENROUTE
2026-05-07 21:38:04 197 437 41280 1251 -59 ENROUTE
2026-05-07 21:38:34 198 440 41281 1255 -59 ENROUTE
2026-05-07 21:39:04 204 455 40971 1259 -59 DESCENT
2026-05-07 21:39:34 216 476 39940 1262 -59 DESCENT
2026-05-07 21:40:04 213 467 39038 1264 -60 DESCENT
2026-05-07 21:40:34 213 454 38085 1266 -57 DESCENT
2026-05-07 21:41:04 217 439 36968 1268 -54 DESCENT
2026-05-07 21:41:34 219 416 35856 1270 -51 DESCENT
2026-05-07 21:42:04 220 410 34885 1272 -48 DESCENT
2026-05-07 21:42:34 223 420 33875 1274 -46 DESCENT
2026-05-07 21:43:04 226 436 32818 1276 -43 DESCENT
2026-05-07 21:43:34 232 446 31647 1278 -40 DESCENT
2026-05-07 21:44:04 239 443 30414 1280 -36 DESCENT
2026-05-07 21:44:34 243 443 29259 1282 -34 DESCENT
2026-05-07 21:45:04 246 440 28147 1284 -31 DESCENT
2026-05-07 21:45:34 251 441 26998 1287 -29 DESCENT
2026-05-07 21:46:04 257 442 25789 1289 -26 DESCENT
2026-05-07 21:46:34 262 443 24516 1292 -23 DESCENT
2026-05-07 21:47:04 267 443 23221 1295 -20 DESCENT
2026-05-07 21:47:34 269 438 22092 1298 -18 DESCENT
2026-05-07 21:48:04 273 433 20920 1300 -17 DESCENT
2026-05-07 21:48:34 277 429 19737 1303 -16 DESCENT
2026-05-07 21:49:04 279 425 18516 1306 -14 DESCENT
2026-05-07 21:49:34 282 420 17354 1309 -12 DESCENT
2026-05-07 21:50:04 284 411 16278 1312 -10 DESCENT
2026-05-07 21:50:34 286 404 15181 1315 -8 DESCENT
2026-05-07 21:51:04 288 398 14065 1319 -6 DESCENT
2026-05-07 21:51:34 260 356 13164 1320 -4 DESCENT
2026-05-07 21:52:04 242 328 12299 1322 -3 DESCENT
2026-05-07 21:52:34 236 319 11443 1323 -2 DESCENT
2026-05-07 21:53:04 233 313 10602 1324 -1 DESCENT
2026-05-07 21:53:34 232 306 9755 1326 0 DESCENT
2026-05-07 21:54:04 231 300 8956 1327 0 DESCENT
2026-05-07 21:54:34 233 294 8178 1329 1 DESCENT
2026-05-07 21:55:04 224 280 7434 1330 3 DESCENT
2026-05-07 21:55:34 228 279 6673 1331 4 DESCENT
2026-05-07 21:56:04 232 277 5910 1332 5 DESCENT
2026-05-07 21:56:34 233 272 5187 1334 7 DESCENT
2026-05-07 21:57:04 236 266 4466 1335 8 DESCENT
2026-05-07 21:57:34 233 254 3739 1336 9 DESCENT
2026-05-07 21:58:04 232 253 3009 1337 10 DESCENT
2026-05-07 21:58:34 229 234 2362 1338 12 DESCENT
2026-05-07 21:59:04 202 203 1952 1340 12 DESCENT
2026-05-07 21:59:34 145 147 1646 1342 13 APPROACH
2026-05-07 22:00:04 133 136 1365 1347 13 APPROACH
2026-05-07 22:00:34 138 142 995 1352 14 ON FINAL
2026-05-07 22:01:04 139 143 619 1357 14 ON FINAL
2026-05-07 22:01:34 135 138 321 1361 14 ON FINAL
2026-05-07 22:02:04 43 45 293 1362 14 ON FINAL
2026-05-07 22:02:34 0 0 291 1363 14 TAXI TO APRON
2026-05-07 22:03:04 17 16 292 1365 14 TAXI TO APRON
2026-05-07 22:03:34 22 20 295 1366 14 TAXI TO APRON
2026-05-07 22:04:04 25 24 298 1367 14 TAXI TO APRON
2026-05-07 22:04:34 24 22 301 1368 14 TAXI TO APRON
2026-05-07 22:05:04 13 12 304 1369 14 TAXI TO APRON
2026-05-07 22:05:34 0 0 304 1370 14 TAXI TO APRON
2026-05-07 22:06:04 0 0 304 1371 14 TAXI TO APRON
2026-05-07 22:06:34 0 0 304 1372 14 TAXI TO APRON
  • Join our VA!

    It has been 11 years of great learning, friendships, and stories.

  • Sign up now!